Cave Spring, Virginia
Current Conditions -  °F | °C
As of 4:54 AM on Tuesday 27 Jan 2015 (Local Time) from KROA Reporting Station
Clear Clear  
Wind Chill: 18°   Ceiling: Unl
Heat Index: 26°   Visibility: 10mi
Dew Point: 13°   Wind: 7mph
Humidity: 58%   Direction: 310°NW
Pressure: 29.78"   Gusts: NA
Location:  37.23°N, 80.01°W
Report Text: KROA 270954Z 31006KT 10SM CLR M03/M11 A2978 RMK AO2 SLP092 T10331106
Loading
Personal Weather Stations






























Interactive Weather Map New forecast layout! Learn more

10-Day Weather Forecast

Advertisements
Track Severe Weather on mobile